Time;durP1;ratioP1;P1;durP2;ratioP2;P2;SDS_P1;SDS_P2;PMS_P1;PMS_P2;Temp;Humidity;BMP_temperature;BMP_pressure;BME280_temperature;BME280_humidity;BME280_pressure;Samples;Min_cycle;Max_cycle;Signal;HPM_P1;HPM_P2
2021/01/25 00:00:30;;;;;;;12.87;8.97;;;2.40;99.90;;;;;;5011254;28;20791;-71
2021/01/25 00:02:57;;;;;;;10.97;7.97;;;2.30;99.90;;;;;;5011006;28;20213;-71
2021/01/25 00:05:23;;;;;;;11.67;8.83;;;2.30;99.90;;;;;;5010920;28;20680;-71
2021/01/25 00:07:49;;;;;;;14.77;9.50;;;2.30;99.90;;;;;;5011372;28;20292;-71
2021/01/25 00:10:16;;;;;;;11.70;8.60;;;2.30;99.90;;;;;;5011296;28;20219;-71
2021/01/25 00:12:43;;;;;;;13.03;9.03;;;2.30;99.90;;;;;;5010782;28;20321;-71
2021/01/25 00:15:10;;;;;;;12.00;8.87;;;2.30;99.90;;;;;;5011132;28;20574;-71
2021/01/25 00:17:37;;;;;;;11.30;8.37;;;2.20;99.90;;;;;;5011052;28;20213;-71
2021/01/25 00:20:04;;;;;;;11.47;9.07;;;2.20;99.90;;;;;;5011091;28;20229;-71
2021/01/25 00:22:30;;;;;;;11.80;9.07;;;2.30;99.90;;;;;;5010771;28;20209;-71
2021/01/25 00:24:57;;;;;;;13.17;9.37;;;2.30;99.90;;;;;;5010610;28;20219;-70
2021/01/25 00:27:23;;;;;;;12.53;9.10;;;2.40;99.90;;;;;;5010684;28;20656;-71
2021/01/25 00:29:50;;;;;;;13.03;9.10;;;2.40;99.90;;;;;;5010497;28;20617;-71
2021/01/25 00:32:17;;;;;;;11.90;8.67;;;2.40;99.90;;;;;;5010819;28;20617;-71
2021/01/25 00:34:44;;;;;;;12.03;8.43;;;2.30;99.90;;;;;;5010756;28;20237;-71
2021/01/25 00:37:10;;;;;;;12.47;9.03;;;2.30;99.90;;;;;;5010416;28;20271;-71
2021/01/25 00:39:37;;;;;;;11.20;8.37;;;2.30;99.90;;;;;;5010678;28;20304;-71
2021/01/25 00:42:04;;;;;;;11.23;8.37;;;2.30;99.90;;;;;;5010634;28;20209;-71
2021/01/25 00:44:30;;;;;;;10.37;8.20;;;2.30;99.90;;;;;;5010206;28;20733;-71
2021/01/25 00:46:57;;;;;;;10.70;8.50;;;2.30;99.90;;;;;;5010876;28;20560;-71
2021/01/25 00:49:24;;;;;;;11.17;8.77;;;2.30;99.90;;;;;;5010649;28;20263;-71
2021/01/25 00:51:50;;;;;;;10.63;8.43;;;2.30;99.90;;;;;;5009592;28;20213;-71
2021/01/25 00:54:16;;;;;;;9.93;8.23;;;2.30;99.90;;;;;;5010191;28;20328;-70
2021/01/25 00:56:43;;;;;;;14.70;9.10;;;2.20;99.90;;;;;;5010380;28;20207;-70
2021/01/25 00:59:09;;;;;;;10.23;8.50;;;2.20;99.90;;;;;;5010275;28;20292;-70
2021/01/25 01:01:35;;;;;;;13.07;9.00;;;2.20;99.90;;;;;;5010091;28;20216;-71
2021/01/25 01:04:03;;;;;;;14.37;9.60;;;2.20;99.90;;;;;;5010050;28;20202;-70
2021/01/25 01:06:29;;;;;;;13.93;8.90;;;2.20;99.90;;;;;;5009977;28;20288;-70
2021/01/25 01:08:55;;;;;;;13.00;8.73;;;2.20;99.90;;;;;;5010177;28;20296;-70
2021/01/25 01:11:22;;;;;;;13.40;9.63;;;2.10;99.90;;;;;;5010124;28;20244;-70
2021/01/25 01:13:48;;;;;;;15.07;10.03;;;2.20;99.90;;;;;;5009645;28;21054;-70
2021/01/25 01:16:14;;;;;;;15.87;11.67;;;2.10;99.90;;;;;;5010214;28;20229;-70
2021/01/25 01:18:41;;;;;;;15.47;10.47;;;2.20;99.90;;;;;;5009951;28;20288;-70
2021/01/25 01:21:08;;;;;;;15.77;10.37;;;2.20;99.90;;;;;;5009828;28;20215;-70
2021/01/25 01:23:34;;;;;;;13.60;10.10;;;2.20;99.90;;;;;;5009678;28;20296;-71
2021/01/25 01:26:01;;;;;;;14.97;10.33;;;2.20;99.90;;;;;;5009574;28;20328;-70
2021/01/25 01:28:27;;;;;;;13.80;11.10;;;2.20;99.90;;;;;;5009549;28;20231;-70
2021/01/25 01:30:54;;;;;;;12.93;9.93;;;2.20;99.90;;;;;;5009962;28;20217;-70
2021/01/25 01:33:20;;;;;;;15.80;11.13;;;2.20;99.90;;;;;;5009732;28;20324;-72
2021/01/25 01:35:46;;;;;;;11.53;9.73;;;2.20;99.90;;;;;;5009288;28;20245;-72
2021/01/25 01:38:13;;;;;;;13.60;11.07;;;2.20;99.90;;;;;;5009223;28;20296;-72
2021/01/25 01:40:40;;;;;;;14.90;10.50;;;2.20;99.90;;;;;;5008648;28;20275;-72
2021/01/25 01:43:06;;;;;;;12.43;9.90;;;2.20;99.90;;;;;;5009656;28;20215;-72
2021/01/25 01:45:33;;;;;;;12.40;9.90;;;2.20;99.90;;;;;;5009140;28;20328;-73
2021/01/25 01:47:59;;;;;;;12.60;9.93;;;2.20;99.90;;;;;;5009431;28;20234;-73
2021/01/25 01:50:26;;;;;;;13.10;9.57;;;2.20;99.90;;;;;;5008838;28;20211;-72
2021/01/25 01:52:53;;;;;;;10.83;9.53;;;2.10;99.90;;;;;;5009242;28;20294;-72
2021/01/25 01:55:21;;;;;;;14.60;10.63;;;2.20;99.90;;;;;;5009497;28;20339;-72
2021/01/25 01:57:51;;;;;;;13.27;10.67;;;2.10;99.90;;;;;;5009031;28;20206;-72
2021/01/25 02:00:19;;;;;;;11.93;9.80;;;2.00;99.90;;;;;;5009281;28;20255;-72
2021/01/25 02:02:45;;;;;;;15.43;10.30;;;2.10;99.90;;;;;;5009082;28;20288;-72
2021/01/25 02:05:12;;;;;;;13.57;10.57;;;2.00;99.90;;;;;;5009189;28;20292;-72
2021/01/25 02:07:41;;;;;;;10.87;9.67;;;1.90;99.90;;;;;;5008844;28;20208;-72
2021/01/25 02:10:08;;;;;;;14.60;10.10;;;1.90;99.90;;;;;;5009111;28;20216;-72
2021/01/25 02:12:36;;;;;;;12.67;10.23;;;1.80;99.90;;;;;;5008881;28;20257;-72
2021/01/25 02:15:04;;;;;;;13.83;10.57;;;1.80;99.90;;;;;;5008552;28;20239;-72
2021/01/25 02:17:31;;;;;;;13.03;10.47;;;1.70;99.90;;;;;;5007821;28;20224;-72
2021/01/25 02:20:03;;;;;;;13.30;10.33;;;1.80;99.90;;;;;;5008504;28;20215;-72
2021/01/25 02:22:54;;;;;;;13.60;10.90;;;1.80;99.90;;;;;;5008493;28;20202;-72
2021/01/25 02:25:30;;;;;;;12.63;9.97;;;1.70;99.90;;;;;;5008789;28;20650;-72
2021/01/25 02:27:57;;;;;;;13.43;10.60;;;1.70;99.90;;;;;;5008913;28;20213;-72
2021/01/25 02:30:23;;;;;;;17.50;10.57;;;1.80;99.90;;;;;;5008697;28;21081;-72
2021/01/25 02:32:53;;;;;;;12.83;10.20;;;1.80;99.90;;;;;;5008416;28;20300;-72
2021/01/25 02:35:20;;;;;;;14.80;10.70;;;1.80;99.90;;;;;;5008517;28;20201;-73
2021/01/25 02:37:52;;;;;;;14.40;10.43;;;1.80;99.90;;;;;;5008339;28;20205;-73
2021/01/25 02:40:21;;;;;;;12.33;10.10;;;1.70;99.90;;;;;;5008816;28;20251;-71
2021/01/25 02:42:48;;;;;;;13.57;10.47;;;1.60;99.90;;;;;;5008566;28;20296;-71
2021/01/25 02:45:16;;;;;;;12.37;10.17;;;1.60;99.90;;;;;;5008361;28;20639;-71
2021/01/25 02:47:44;;;;;;;13.37;10.70;;;1.60;99.90;;;;;;5008737;28;20627;-71
2021/01/25 02:50:11;;;;;;;13.27;9.93;;;1.70;99.90;;;;;;5008767;28;20205;-72
2021/01/25 02:52:37;;;;;;;10.87;9.27;;;1.70;99.90;;;;;;5008263;28;20214;-72
2021/01/25 02:55:04;;;;;;;12.50;9.83;;;1.70;99.90;;;;;;5008417;28;20232;-73
2021/01/25 02:57:34;;;;;;;11.10;9.17;;;1.70;99.90;;;;;;5008297;28;20432;-71
2021/01/25 03:00:00;;;;;;;10.77;9.23;;;1.80;99.90;;;;;;5007978;28;20260;-71
2021/01/25 03:02:28;;;;;;;11.93;9.63;;;1.80;99.90;;;;;;5008360;28;20209;-71
2021/01/25 03:04:54;;;;;;;11.27;9.97;;;1.90;99.90;;;;;;5008119;28;20320;-71
2021/01/25 03:07:21;;;;;;;10.33;8.77;;;1.80;99.90;;;;;;5008341;28;20353;-71
2021/01/25 03:09:47;;;;;;;13.40;9.80;;;1.90;99.90;;;;;;5007717;28;20209;-72
2021/01/25 03:12:15;;;;;;;13.40;10.13;;;1.90;99.90;;;;;;5007944;28;20244;-71
2021/01/25 03:14:45;;;;;;;13.10;10.17;;;1.90;99.90;;;;;;5008132;28;20731;-71
2021/01/25 03:17:12;;;;;;;12.53;9.93;;;2.00;99.90;;;;;;5008689;28;20217;-71
2021/01/25 03:19:39;;;;;;;11.10;9.47;;;2.00;99.90;;;;;;5008148;28;20296;-70
2021/01/25 03:22:06;;;;;;;12.13;9.27;;;2.00;99.90;;;;;;5007997;28;20245;-71
2021/01/25 03:24:32;;;;;;;12.07;9.93;;;2.00;99.90;;;;;;5007900;28;21015;-71
2021/01/25 03:26:59;;;;;;;10.87;8.80;;;2.00;99.90;;;;;;5008039;28;20263;-71
2021/01/25 03:29:25;;;;;;;10.23;8.53;;;2.00;99.90;;;;;;5008143;28;20216;-71
2021/01/25 03:31:51;;;;;;;10.20;9.10;;;2.00;99.90;;;;;;5008202;28;20352;-70
2021/01/25 03:34:18;;;;;;;12.17;9.67;;;2.10;99.90;;;;;;5007906;28;20328;-71
2021/01/25 03:36:45;;;;;;;13.47;9.27;;;2.00;99.90;;;;;;5007919;28;20209;-71
2021/01/25 03:39:11;;;;;;;11.67;9.77;;;2.00;99.90;;;;;;5008040;28;20212;-71
2021/01/25 03:41:38;;;;;;;12.73;10.23;;;2.10;99.90;;;;;;5007732;28;20205;-71
2021/01/25 03:44:04;;;;;;;12.53;9.43;;;2.10;99.90;;;;;;5008225;28;20272;-71
2021/01/25 03:46:31;;;;;;;12.40;9.37;;;2.10;99.90;;;;;;5007292;28;20246;-71
2021/01/25 03:48:57;;;;;;;11.03;9.30;;;2.10;99.90;;;;;;5007517;28;20212;-71
2021/01/25 03:51:23;;;;;;;12.47;10.67;;;2.10;99.90;;;;;;5007376;28;20296;-71
2021/01/25 03:53:50;;;;;;;11.80;10.03;;;2.10;99.90;;;;;;5007624;28;20237;-71
2021/01/25 03:56:17;;;;;;;10.50;9.00;;;2.20;99.90;;;;;;5007916;28;20292;-72
2021/01/25 03:58:44;;;;;;;12.40;10.47;;;2.20;99.90;;;;;;5007667;28;20206;-71
2021/01/25 04:01:11;;;;;;;11.17;9.60;;;2.20;99.90;;;;;;5007946;28;20220;-72
2021/01/25 04:03:37;;;;;;;12.00;10.53;;;2.30;99.90;;;;;;5007503;28;20651;-72
2021/01/25 04:06:04;;;;;;;13.60;11.10;;;2.30;99.90;;;;;;5010845;28;20284;-71
2021/01/25 04:08:30;;;;;;;14.13;11.07;;;2.20;99.90;;;;;;5011089;28;20343;-71
2021/01/25 04:10:57;;;;;;;15.67;12.10;;;2.20;99.90;;;;;;5011295;28;20288;-71
2021/01/25 04:13:24;;;;;;;16.43;13.20;;;2.20;99.90;;;;;;4989171;28;20241;-71
2021/01/25 04:15:50;;;;;;;16.57;12.53;;;2.10;99.90;;;;;;4987659;28;20771;-70
2021/01/25 04:18:17;;;;;;;15.20;11.23;;;2.10;99.90;;;;;;4987893;28;20206;-71
2021/01/25 04:20:43;;;;;;;17.73;12.67;;;2.10;99.90;;;;;;4992565;28;20288;-71
2021/01/25 04:23:10;;;;;;;15.53;12.07;;;2.00;99.90;;;;;;5007314;28;20219;-71
2021/01/25 04:25:36;;;;;;;16.73;12.50;;;2.00;99.90;;;;;;5007149;28;20717;-71
2021/01/25 04:28:04;;;;;;;14.93;12.10;;;2.00;99.90;;;;;;4996887;28;20690;-73
2021/01/25 04:30:30;;;;;;;18.57;14.80;;;2.00;99.90;;;;;;4997977;28;20208;-73
2021/01/25 04:32:57;;;;;;;17.50;13.77;;;2.00;99.90;;;;;;4998375;28;20831;-71
2021/01/25 04:35:23;;;;;;;17.53;13.03;;;1.90;99.90;;;;;;5007287;28;20287;-71
2021/01/25 04:37:49;;;;;;;16.80;12.50;;;1.90;99.90;;;;;;5006953;28;20678;-71
2021/01/25 04:40:16;;;;;;;17.00;12.03;;;1.80;99.90;;;;;;5006870;28;20759;-71
2021/01/25 04:42:42;;;;;;;20.00;13.03;;;1.80;99.90;;;;;;5006571;28;20213;-71
2021/01/25 04:45:12;;;;;;;21.57;14.50;;;1.80;99.90;;;;;;5006475;28;20842;-70
2021/01/25 04:47:41;;;;;;;17.73;13.23;;;1.70;99.90;;;;;;5006484;28;20292;-71
2021/01/25 04:50:09;;;;;;;22.40;14.40;;;1.70;99.90;;;;;;5006597;28;20304;-71
2021/01/25 04:52:36;;;;;;;19.73;14.43;;;1.60;99.90;;;;;;5006696;28;20305;-71
2021/01/25 04:55:03;;;;;;;22.00;15.63;;;1.70;99.90;;;;;;5006611;28;20307;-71
2021/01/25 04:57:31;;;;;;;22.50;14.17;;;1.70;99.90;;;;;;5006135;28;20724;-71
2021/01/25 04:59:58;;;;;;;23.27;14.73;;;1.80;99.90;;;;;;5002649;28;20244;-71
2021/01/25 05:02:26;;;;;;;21.27;14.60;;;1.80;99.90;;;;;;5009921;28;20205;-71
2021/01/25 05:04:53;;;;;;;24.63;16.03;;;1.90;99.90;;;;;;5009854;28;20296;-70
2021/01/25 05:07:19;;;;;;;23.40;15.30;;;1.80;99.90;;;;;;5007683;28;20331;-70
2021/01/25 05:09:46;;;;;;;20.77;15.70;;;1.80;99.90;;;;;;5005135;28;20206;-71
2021/01/25 05:12:12;;;;;;;21.20;14.73;;;1.80;99.90;;;;;;5009666;28;20393;-70
2021/01/25 05:14:39;;;;;;;20.43;14.97;;;1.80;99.90;;;;;;5009455;28;20497;-70
2021/01/25 05:17:07;;;;;;;25.47;16.27;;;1.90;99.90;;;;;;5008695;28;20213;-70
2021/01/25 05:19:35;;;;;;;22.60;15.73;;;1.90;99.90;;;;;;5009724;28;20263;-70
2021/01/25 05:22:02;;;;;;;23.83;16.17;;;1.80;99.90;;;;;;5009560;28;20205;-70
2021/01/25 05:24:28;;;;;;;21.73;15.37;;;1.80;99.90;;;;;;5007287;28;20259;-71
2021/01/25 05:26:57;;;;;;;23.83;16.00;;;1.70;99.90;;;;;;4998537;28;20559;-71
2021/01/25 05:29:25;;;;;;;23.77;15.60;;;1.70;99.90;;;;;;4996838;28;20703;-70
2021/01/25 05:31:52;;;;;;;21.07;14.90;;;1.80;99.90;;;;;;4999271;28;20635;-70
2021/01/25 05:34:19;;;;;;;20.43;14.87;;;1.80;99.90;;;;;;5000618;28;20527;-69
2021/01/25 05:36:47;;;;;;;20.83;15.27;;;1.80;99.90;;;;;;4996993;28;20681;-70
2021/01/25 05:39:15;;;;;;;20.07;14.57;;;1.80;99.90;;;;;;4999024;28;20286;-71
2021/01/25 05:41:53;;;;;;;23.70;15.03;;;1.70;99.90;;;;;;4996628;28;20213;-70
2021/01/25 05:44:19;;;;;;;20.80;14.30;;;1.70;99.90;;;;;;4998975;28;20194;-70
2021/01/25 05:46:46;;;;;;;21.50;15.17;;;1.70;99.90;;;;;;4997813;28;20214;-70
2021/01/25 05:49:12;;;;;;;19.60;14.73;;;1.70;99.90;;;;;;4997051;28;20241;-71
2021/01/25 05:51:40;;;;;;;23.27;14.63;;;1.80;99.90;;;;;;4997875;28;20289;-70
2021/01/25 05:54:08;;;;;;;22.80;16.07;;;1.80;99.90;;;;;;5002322;28;20237;-70
2021/01/25 05:56:34;;;;;;;24.87;17.87;;;1.80;99.90;;;;;;4996849;28;20213;-70
2021/01/25 05:59:01;;;;;;;22.20;16.07;;;1.80;99.90;;;;;;4998895;28;20293;-71
2021/01/25 06:01:27;;;;;;;21.13;15.17;;;1.80;99.90;;;;;;4996578;28;20198;-70
2021/01/25 06:03:56;;;;;;;18.80;13.50;;;1.80;99.90;;;;;;4997432;28;20289;-70
2021/01/25 06:06:28;;;;;;;18.63;14.23;;;1.70;99.90;;;;;;4996852;28;20696;-70
2021/01/25 06:09:06;;;;;;;22.17;15.13;;;1.70;99.90;;;;;;4999015;28;20538;-70
2021/01/25 06:11:35;;;;;;;23.63;15.33;;;1.70;99.90;;;;;;4996167;28;20316;-70
2021/01/25 06:14:07;;;;;;;25.70;16.43;;;1.80;99.90;;;;;;4999105;28;20291;-70
2021/01/25 06:16:35;;;;;;;25.67;17.70;;;1.70;99.90;;;;;;4996288;28;20252;-70
2021/01/25 06:19:03;;;;;;;22.03;15.53;;;1.70;99.90;;;;;;4996122;28;20318;-71
2021/01/25 06:21:33;;;;;;;23.37;16.13;;;1.80;99.90;;;;;;4996102;28;20202;-70
2021/01/25 06:24:01;;;;;;;28.60;23.00;;;1.80;99.90;;;;;;5002716;28;20227;-73
2021/01/25 06:26:30;;;;;;;28.33;21.57;;;1.80;99.90;;;;;;4990450;28;20546;-73
2021/01/25 06:29:01;;;;;;;27.13;17.70;;;1.80;99.90;;;;;;5001044;28;20293;-71
2021/01/25 06:31:27;;;;;;;25.43;16.80;;;1.80;99.90;;;;;;4998317;28;20201;-71
2021/01/25 06:33:54;;;;;;;34.37;22.87;;;1.80;99.90;;;;;;4997445;28;20225;-71
2021/01/25 06:36:21;;;;;;;30.27;20.00;;;1.70;99.90;;;;;;4995828;28;20286;-71
2021/01/25 06:38:52;;;;;;;25.43;17.60;;;1.80;99.90;;;;;;4995239;28;20224;-70
2021/01/25 06:41:19;;;;;;;27.63;18.73;;;1.70;99.90;;;;;;4999214;28;20271;-70
2021/01/25 06:43:49;;;;;;;27.63;17.30;;;1.70;99.90;;;;;;4999133;28;20736;-70
2021/01/25 06:46:18;;;;;;;29.53;17.60;;;1.60;99.90;;;;;;4996338;28;20635;-70
2021/01/25 06:48:49;;;;;;;27.57;18.20;;;1.70;99.90;;;;;;4996611;28;20286;-70
2021/01/25 06:51:17;;;;;;;35.90;22.73;;;1.70;99.90;;;;;;4997504;28;20679;-70
2021/01/25 06:53:43;;;;;;;26.00;17.73;;;1.70;99.90;;;;;;4997082;28;20233;-71
2021/01/25 06:56:09;;;;;;;24.13;16.03;;;1.70;99.90;;;;;;4995567;28;20205;-70
2021/01/25 06:58:38;;;;;;;22.47;16.23;;;1.70;99.90;;;;;;4998164;28;20621;-70
2021/01/25 07:01:08;;;;;;;24.00;16.93;;;1.70;99.90;;;;;;4995125;28;20228;-70
2021/01/25 07:03:50;;;;;;;26.40;17.23;;;1.60;99.90;;;;;;5007451;28;20621;-70
2021/01/25 07:06:16;;;;;;;24.87;16.43;;;1.60;99.90;;;;;;4990110;28;20198;-70
2021/01/25 07:08:53;;;;;;;26.70;17.37;;;1.70;99.90;;;;;;4987760;28;20352;-70
2021/01/25 07:11:21;;;;;;;27.90;16.60;;;1.70;99.90;;;;;;4987530;28;20322;-70
2021/01/25 07:13:48;;;;;;;21.33;14.43;;;1.70;99.90;;;;;;4987551;28;20238;-70
2021/01/25 07:16:16;;;;;;;23.00;15.90;;;1.80;99.90;;;;;;4987717;28;20210;-71
2021/01/25 07:18:43;;;;;;;27.30;16.03;;;1.90;99.90;;;;;;4987500;28;20216;-70
2021/01/25 07:21:12;;;;;;;23.67;16.77;;;1.80;99.90;;;;;;4987485;28;20206;-70
2021/01/25 07:23:41;;;;;;;24.33;16.43;;;1.90;99.90;;;;;;4987347;28;20213;-70
2021/01/25 07:26:10;;;;;;;25.30;15.83;;;1.90;99.90;;;;;;4987873;28;20300;-70
2021/01/25 07:28:37;;;;;;;22.73;16.47;;;2.00;99.90;;;;;;4987270;28;20249;-70
2021/01/25 07:31:03;;;;;;;22.90;15.77;;;1.90;99.90;;;;;;4994375;28;20206;-70
2021/01/25 07:33:29;;;;;;;21.97;16.33;;;2.00;99.90;;;;;;4993982;28;20207;-73
2021/01/25 07:35:58;;;;;;;31.07;24.20;;;2.10;99.90;;;;;;4997439;28;20212;-73
2021/01/25 07:38:28;;;;;;;31.07;21.87;;;2.10;99.90;;;;;;4999997;28;20206;-71
2021/01/25 07:40:57;;;;;;;23.03;16.50;;;2.20;99.90;;;;;;4993661;28;20669;-71
2021/01/25 07:43:26;;;;;;;23.87;16.57;;;2.20;99.90;;;;;;4993567;28;20657;-70
2021/01/25 07:45:54;;;;;;;25.73;16.37;;;2.00;99.90;;;;;;4996099;28;20233;-70
2021/01/25 07:48:21;;;;;;;23.00;16.73;;;2.00;99.90;;;;;;5007134;28;20611;-70
2021/01/25 07:50:54;;;;;;;28.17;17.17;;;1.90;99.90;;;;;;5008268;28;20202;-71
2021/01/25 07:53:21;;;;;;;25.63;16.77;;;1.90;99.90;;;;;;5004798;28;20272;-71
2021/01/25 07:55:49;;;;;;;21.17;14.53;;;1.90;99.90;;;;;;4995746;28;20212;-70
2021/01/25 07:58:15;;;;;;;20.87;15.53;;;1.90;99.90;;;;;;4995619;28;20247;-70
2021/01/25 08:00:42;;;;;;;21.90;15.67;;;1.90;99.90;;;;;;4991191;28;20317;-70
2021/01/25 08:03:11;;;;;;;25.03;14.87;;;1.80;99.90;;;;;;4999301;28;20229;-70
2021/01/25 08:05:38;;;;;;;23.50;15.23;;;1.80;99.90;;;;;;5004939;28;20212;-70
2021/01/25 08:08:07;;;;;;;20.97;14.63;;;1.80;99.90;;;;;;5006978;28;20293;-70
2021/01/25 08:10:34;;;;;;;21.87;15.07;;;1.80;99.90;;;;;;5010189;28;20209;-71
2021/01/25 08:13:02;;;;;;;21.87;15.27;;;1.80;99.90;;;;;;5010250;28;20257;-70
2021/01/25 08:15:34;;;;;;;21.57;14.43;;;1.90;99.90;;;;;;5010494;28;20292;-71
2021/01/25 08:18:06;;;;;;;22.37;14.47;;;1.80;99.90;;;;;;5010402;28;20198;-70
2021/01/25 08:20:35;;;;;;;23.60;13.80;;;1.80;99.90;;;;;;5009493;28;20206;-70
2021/01/25 08:23:06;;;;;;;19.27;13.77;;;1.90;99.90;;;;;;5010094;28;20221;-70
2021/01/25 08:25:33;;;;;;;18.43;13.80;;;1.90;99.90;;;;;;5010046;28;20208;-71
2021/01/25 08:28:04;;;;;;;20.77;13.97;;;1.80;99.90;;;;;;5010074;28;20304;-71
2021/01/25 08:30:36;;;;;;;20.27;14.03;;;1.90;99.90;;;;;;5009703;28;20208;-71
2021/01/25 08:33:04;;;;;;;18.70;13.60;;;1.90;99.90;;;;;;5003076;28;20226;-72
2021/01/25 08:35:34;;;;;;;24.10;14.50;;;1.80;99.90;;;;;;4989779;28;20333;-70
2021/01/25 08:38:10;;;;;;;22.47;15.10;;;1.80;99.90;;;;;;4989869;28;20676;-70
2021/01/25 08:40:38;;;;;;;20.30;14.43;;;1.80;99.90;;;;;;4989610;28;20680;-70
2021/01/25 08:43:06;;;;;;;23.00;14.57;;;1.80;99.90;;;;;;4990004;28;20289;-70
2021/01/25 08:45:33;;;;;;;21.23;14.27;;;1.90;99.90;;;;;;4989548;28;20349;-70
2021/01/25 08:48:05;;;;;;;23.63;14.70;;;1.90;99.90;;;;;;4996518;28;20206;-71
2021/01/25 08:50:32;;;;;;;23.60;15.90;;;1.90;99.90;;;;;;4998126;28;20201;-73
2021/01/25 08:53:02;;;;;;;34.07;20.03;;;1.90;99.90;;;;;;4998445;28;20567;-71
2021/01/25 08:55:37;;;;;;;22.33;15.53;;;1.90;99.90;;;;;;5001404;28;20236;-71
2021/01/25 08:58:14;;;;;;;21.47;14.97;;;1.90;99.90;;;;;;5001956;28;20243;-71
2021/01/25 09:00:42;;;;;;;21.47;15.17;;;1.90;99.90;;;;;;4997915;28;20227;-72
2021/01/25 09:03:11;;;;;;;22.33;14.90;;;2.00;99.90;;;;;;4997429;28;20671;-71
2021/01/25 09:05:38;;;;;;;23.03;15.37;;;2.00;99.90;;;;;;5002769;28;20285;-71
2021/01/25 09:08:05;;;;;;;23.17;15.07;;;2.00;99.90;;;;;;4995752;28;20198;-71
2021/01/25 09:10:31;;;;;;;22.97;14.90;;;2.10;99.90;;;;;;4995337;28;20312;-72
2021/01/25 09:12:58;;;;;;;22.90;14.70;;;2.10;99.90;;;;;;4999003;28;20226;-71
2021/01/25 09:15:26;;;;;;;21.17;14.73;;;2.10;99.90;;;;;;4997645;28;20316;-72
2021/01/25 09:17:53;;;;;;;22.47;14.90;;;2.20;99.90;;;;;;4997642;28;20213;-69
2021/01/25 09:20:20;;;;;;;24.17;14.63;;;2.30;99.90;;;;;;5000821;28;20248;-69
2021/01/25 09:22:46;;;;;;;20.03;13.53;;;2.30;99.90;;;;;;4997636;28;20209;-69
2021/01/25 09:25:15;;;;;;;23.77;15.37;;;2.30;99.90;;;;;;5001668;28;20236;-69
2021/01/25 09:27:42;;;;;;;24.80;15.20;;;2.30;99.90;;;;;;4997101;28;20910;-71
2021/01/25 09:30:11;;;;;;;19.10;13.53;;;2.20;99.90;;;;;;5000445;28;20246;-71
2021/01/25 09:32:38;;;;;;;19.57;13.00;;;2.20;99.90;;;;;;5000551;28;20281;-71
2021/01/25 09:35:08;;;;;;;22.60;14.50;;;2.20;99.90;;;;;;5000325;28;20228;-71
2021/01/25 09:37:34;;;;;;;21.80;14.50;;;2.30;99.90;;;;;;4999061;28;20281;-70
2021/01/25 09:40:00;;;;;;;20.20;14.20;;;2.30;99.90;;;;;;5000157;28;20213;-71
2021/01/25 09:42:27;;;;;;;20.07;13.53;;;2.30;99.90;;;;;;4996663;28;20923;-71
2021/01/25 09:44:53;;;;;;;22.67;14.63;;;2.40;99.90;;;;;;4997976;28;20313;-70
2021/01/25 09:47:19;;;;;;;21.93;14.20;;;2.40;99.90;;;;;;4997342;28;20228;-71
2021/01/25 09:49:46;;;;;;;21.93;13.67;;;2.40;99.90;;;;;;4999330;28;20203;-71
2021/01/25 09:52:13;;;;;;;19.27;13.43;;;2.50;99.90;;;;;;4998054;28;20259;-71
2021/01/25 09:54:39;;;;;;;21.13;13.97;;;2.50;99.90;;;;;;4996513;28;20233;-70
2021/01/25 09:57:05;;;;;;;20.03;13.73;;;2.50;99.90;;;;;;4997445;28;20198;-71
2021/01/25 09:59:32;;;;;;;22.57;14.20;;;2.50;99.90;;;;;;4998126;28;20615;-71
2021/01/25 10:01:58;;;;;;;19.03;13.10;;;2.50;99.90;;;;;;4998958;28;20263;-70
2021/01/25 10:04:24;;;;;;;19.47;13.03;;;2.50;99.90;;;;;;5001869;28;20340;-71
2021/01/25 10:06:50;;;;;;;20.90;13.30;;;2.60;99.90;;;;;;4996537;28;20202;-71
2021/01/25 10:09:18;;;;;;;15.87;10.93;;;2.70;99.90;;;;;;4999107;28;20215;-71
2021/01/25 10:11:45;;;;;;;17.57;11.97;;;2.60;99.90;;;;;;4999259;28;20222;-71
2021/01/25 10:14:11;;;;;;;17.73;10.30;;;2.60;99.90;;;;;;4995270;28;20228;-71
2021/01/25 10:16:37;;;;;;;15.67;10.67;;;2.60;99.90;;;;;;4999413;28;20202;-70
2021/01/25 10:19:04;;;;;;;15.30;9.90;;;2.50;99.90;;;;;;4999485;28;20253;-70
2021/01/25 10:21:30;;;;;;;15.03;10.53;;;2.50;99.90;;;;;;4998178;28;20573;-70
2021/01/25 10:23:56;;;;;;;15.67;11.23;;;2.50;99.90;;;;;;4998617;28;20256;-70
2021/01/25 10:26:23;;;;;;;13.80;9.63;;;2.50;99.90;;;;;;5001228;28;20218;-71
2021/01/25 10:28:50;;;;;;;18.83;13.87;;;2.50;99.90;;;;;;4994294;28;20202;-73
2021/01/25 10:31:17;;;;;;;16.07;13.20;;;2.50;99.90;;;;;;4996003;28;20251;-73
2021/01/25 10:33:43;;;;;;;12.87;9.63;;;2.60;99.90;;;;;;4997419;28;20595;-71
2021/01/25 10:36:10;;;;;;;13.27;9.53;;;2.60;99.90;;;;;;5002678;28;20209;-71
2021/01/25 10:38:37;;;;;;;14.77;9.37;;;2.50;99.90;;;;;;5001782;28;20209;-71
2021/01/25 10:41:03;;;;;;;12.20;9.70;;;2.50;99.90;;;;;;4999004;28;20735;-71
2021/01/25 10:43:30;;;;;;;14.33;9.90;;;2.50;99.90;;;;;;4999341;28;20209;-71
2021/01/25 10:45:56;;;;;;;16.03;10.30;;;2.50;99.90;;;;;;4996397;28;20234;-71
2021/01/25 10:48:23;;;;;;;13.63;10.50;;;2.50;99.90;;;;;;4999591;28;20602;-70
2021/01/25 10:50:49;;;;;;;16.10;9.93;;;2.50;99.90;;;;;;4998047;28;20222;-71
2021/01/25 10:53:17;;;;;;;11.47;9.50;;;2.50;99.90;;;;;;4996253;28;20209;-71
2021/01/25 10:55:43;;;;;;;13.30;9.77;;;2.50;99.90;;;;;;4998987;28;20571;-71
2021/01/25 10:58:09;;;;;;;13.37;10.30;;;2.50;99.90;;;;;;4994911;28;20285;-71
2021/01/25 11:00:36;;;;;;;15.53;10.47;;;2.40;99.90;;;;;;4995986;28;20202;-71
2021/01/25 11:03:02;;;;;;;13.00;9.80;;;2.50;99.90;;;;;;4998181;28;20221;-71
2021/01/25 11:05:29;;;;;;;16.77;11.03;;;2.50;99.90;;;;;;4996940;28;20683;-70
2021/01/25 11:07:55;;;;;;;14.87;11.10;;;2.50;99.90;;;;;;4998507;28;20216;-70
2021/01/25 11:10:25;;;;;;;21.07;11.43;;;2.50;99.90;;;;;;4996844;28;20210;-70
2021/01/25 11:12:52;;;;;;;14.53;10.57;;;2.50;99.90;;;;;;5005104;28;20578;-70
2021/01/25 11:15:20;;;;;;;14.33;10.20;;;2.50;99.90;;;;;;5010595;28;20233;-70
2021/01/25 11:17:47;;;;;;;14.20;10.30;;;2.40;99.90;;;;;;4992043;28;20206;-70
2021/01/25 11:20:16;;;;;;;14.13;10.17;;;2.40;99.90;;;;;;4991696;28;20245;-70
2021/01/25 11:22:42;;;;;;;13.03;9.83;;;2.40;99.90;;;;;;4991268;28;20225;-71
2021/01/25 11:25:10;;;;;;;11.37;8.83;;;2.40;99.90;;;;;;4991570;28;20582;-71
2021/01/25 11:27:37;;;;;;;13.00;10.07;;;2.30;99.90;;;;;;4991643;28;20206;-70
2021/01/25 11:30:05;;;;;;;12.47;9.30;;;2.40;99.90;;;;;;4992169;28;20218;-70
2021/01/25 11:32:31;;;;;;;12.73;10.27;;;2.30;99.90;;;;;;4991819;28;20217;-71
2021/01/25 11:34:58;;;;;;;13.13;10.17;;;2.30;99.90;;;;;;4991116;28;20708;-70
2021/01/25 11:37:24;;;;;;;14.37;10.60;;;2.20;99.90;;;;;;4991634;28;20206;-70
2021/01/25 11:39:51;;;;;;;15.97;11.23;;;2.20;99.90;;;;;;4991359;28;20206;-70
2021/01/25 11:42:17;;;;;;;16.23;13.53;;;2.20;99.90;;;;;;5003270;28;20203;-72
2021/01/25 11:44:43;;;;;;;20.17;17.67;;;2.20;99.90;;;;;;5000446;28;20237;-72
2021/01/25 11:47:10;;;;;;;14.90;11.47;;;2.20;99.90;;;;;;5001378;28;20214;-71
2021/01/25 11:49:36;;;;;;;14.03;11.83;;;2.20;99.90;;;;;;5001057;28;20206;-71
2021/01/25 11:52:03;;;;;;;14.93;11.57;;;2.20;99.90;;;;;;5009135;28;20217;-71
2021/01/25 11:54:30;;;;;;;14.90;11.07;;;2.20;99.90;;;;;;5010276;28;20240;-71
2021/01/25 11:56:56;;;;;;;16.37;12.03;;;2.20;99.90;;;;;;5010943;28;20300;-71
2021/01/25 11:59:24;;;;;;;15.70;11.30;;;2.20;99.90;;;;;;5007406;28;20202;-71
2021/01/25 12:01:50;;;;;;;14.47;11.00;;;2.30;99.90;;;;;;4999453;28;20216;-71
2021/01/25 12:04:16;;;;;;;15.53;11.73;;;2.30;99.90;;;;;;4997335;28;20214;-71
2021/01/25 12:06:42;;;;;;;14.53;10.63;;;2.40;99.90;;;;;;5001454;28;20208;-71
2021/01/25 12:09:09;;;;;;;20.60;11.90;;;2.40;99.90;;;;;;5000933;28;20284;-71
2021/01/25 12:11:35;;;;;;;15.93;11.43;;;2.40;99.90;;;;;;4998671;28;20272;-71
2021/01/25 12:14:02;;;;;;;15.33;11.53;;;2.50;99.90;;;;;;5001452;28;20575;-71
2021/01/25 12:16:28;;;;;;;17.83;11.67;;;2.50;99.90;;;;;;5000998;28;20252;-71
2021/01/25 12:18:54;;;;;;;19.27;11.97;;;2.60;99.90;;;;;;4990682;28;20217;-71
2021/01/25 12:21:20;;;;;;;17.47;12.20;;;2.60;99.90;;;;;;4990310;28;20688;-71
2021/01/25 12:23:47;;;;;;;16.47;12.10;;;2.60;99.90;;;;;;4990402;28;20284;-71
2021/01/25 12:26:14;;;;;;;17.53;12.00;;;2.70;99.90;;;;;;4990219;28;20214;-71
2021/01/25 12:28:40;;;;;;;14.93;11.00;;;2.60;99.90;;;;;;4990662;28;20736;-71
2021/01/25 12:31:07;;;;;;;14.57;11.00;;;2.60;99.90;;;;;;5000717;28;20207;-71
2021/01/25 12:33:35;;;;;;;16.27;11.17;;;2.60;99.90;;;;;;4990655;28;20221;-71
2021/01/25 12:36:01;;;;;;;15.20;11.30;;;2.60;99.90;;;;;;4990390;28;20241;-71
2021/01/25 12:38:28;;;;;;;14.53;10.40;;;2.60;99.90;;;;;;4990198;28;20320;-71